sensor_id;sensor_type;location;lat;lon;timestamp;pressure;altitude;pressure_sealevel;temperature;humidity
65376;BME280;51976;47.332;9.404;2023-04-28T00:00:43;92617.91;;;10.14;69.29
65376;BME280;51976;47.332;9.404;2023-04-28T00:03:11;92629.66;;;10.29;69.24
65376;BME280;51976;47.332;9.404;2023-04-28T00:05:36;92617.06;;;10.24;69.62
65376;BME280;51976;47.332;9.404;2023-04-28T00:08:02;92638.00;;;10.32;69.26
65376;BME280;51976;47.332;9.404;2023-04-28T00:10:27;92615.97;;;10.25;69.52
65376;BME280;51976;47.332;9.404;2023-04-28T00:12:53;92601.72;;;9.91;69.79
65376;BME280;51976;47.332;9.404;2023-04-28T00:15:18;92619.31;;;10.12;70.17
65376;BME280;51976;47.332;9.404;2023-04-28T00:17:44;92585.13;;;9.83;70.76
65376;BME280;51976;47.332;9.404;2023-04-28T00:20:10;92619.25;;;10.17;70.77
65376;BME280;51976;47.332;9.404;2023-04-28T00:22:35;92570.44;;;9.95;70.11
65376;BME280;51976;47.332;9.404;2023-04-28T00:25:01;92569.25;;;9.82;70.21
65376;BME280;51976;47.332;9.404;2023-04-28T00:27:26;92617.41;;;10.12;70.41
65376;BME280;51976;47.332;9.404;2023-04-28T00:29:52;92573.19;;;9.90;70.52
65376;BME280;51976;47.332;9.404;2023-04-28T00:32:18;92612.38;;;10.06;71.08
65376;BME280;51976;47.332;9.404;2023-04-28T00:34:43;92616.75;;;9.97;71.22
65376;BME280;51976;47.332;9.404;2023-04-28T00:37:09;92619.72;;;9.95;71.56
65376;BME280;51976;47.332;9.404;2023-04-28T00:39:34;92601.31;;;9.78;71.86
65376;BME280;51976;47.332;9.404;2023-04-28T00:42:00;92614.53;;;10.04;71.47
65376;BME280;51976;47.332;9.404;2023-04-28T00:44:26;92617.19;;;10.09;70.78
65376;BME280;51976;47.332;9.404;2023-04-28T00:46:52;92579.28;;;10.00;70.00
65376;BME280;51976;47.332;9.404;2023-04-28T00:49:17;92566.63;;;10.01;69.73
65376;BME280;51976;47.332;9.404;2023-04-28T00:51:43;92610.00;;;10.28;69.81
65376;BME280;51976;47.332;9.404;2023-04-28T00:54:12;92546.84;;;9.87;70.17
65376;BME280;51976;47.332;9.404;2023-04-28T00:56:38;92611.66;;;10.24;70.23
65376;BME280;51976;47.332;9.404;2023-04-28T00:59:03;92607.94;;;10.15;70.39
65376;BME280;51976;47.332;9.404;2023-04-28T01:01:29;92582.06;;;9.90;70.77
65376;BME280;51976;47.332;9.404;2023-04-28T01:03:56;92612.38;;;10.06;71.07
65376;BME280;51976;47.332;9.404;2023-04-28T01:06:22;92596.72;;;10.08;71.19
65376;BME280;51976;47.332;9.404;2023-04-28T01:08:48;92596.59;;;10.18;71.04
65376;BME280;51976;47.332;9.404;2023-04-28T01:11:18;92606.78;;;10.26;70.56
65376;BME280;51976;47.332;9.404;2023-04-28T01:13:43;92598.16;;;10.29;70.48
65376;BME280;51976;47.332;9.404;2023-04-28T01:16:09;92575.06;;;10.18;70.71
65376;BME280;51976;47.332;9.404;2023-04-28T01:18:36;92593.38;;;10.16;70.64
65376;BME280;51976;47.332;9.404;2023-04-28T01:21:01;92574.63;;;10.11;70.42
65376;BME280;51976;47.332;9.404;2023-04-28T01:23:31;92591.72;;;10.25;70.04
65376;BME280;51976;47.332;9.404;2023-04-28T01:26:06;92557.66;;;10.10;70.10
65376;BME280;51976;47.332;9.404;2023-04-28T01:28:33;92581.94;;;10.34;69.95
65376;BME280;51976;47.332;9.404;2023-04-28T01:30:58;92584.91;;;10.33;70.05
65376;BME280;51976;47.332;9.404;2023-04-28T01:33:24;92564.56;;;10.16;70.17
65376;BME280;51976;47.332;9.404;2023-04-28T01:35:49;92587.69;;;10.23;70.23
65376;BME280;51976;47.332;9.404;2023-04-28T01:38:15;92583.06;;;10.28;70.21
65376;BME280;51976;47.332;9.404;2023-04-28T01:40:40;92571.31;;;10.19;69.45
65376;BME280;51976;47.332;9.404;2023-04-28T01:43:05;92590.88;;;10.30;69.18
65376;BME280;51976;47.332;9.404;2023-04-28T01:45:31;92586.28;;;10.30;69.64
65376;BME280;51976;47.332;9.404;2023-04-28T01:47:56;92597.72;;;10.41;69.47
65376;BME280;51976;47.332;9.404;2023-04-28T01:50:21;92596.88;;;10.45;69.56
65376;BME280;51976;47.332;9.404;2023-04-28T01:52:47;92569.59;;;10.28;69.68
65376;BME280;51976;47.332;9.404;2023-04-28T01:55:12;92596.72;;;10.37;69.95
65376;BME280;51976;47.332;9.404;2023-04-28T01:57:38;92598.03;;;10.39;69.76
65376;BME280;51976;47.332;9.404;2023-04-28T02:00:03;92596.25;;;10.30;69.69
65376;BME280;51976;47.332;9.404;2023-04-28T02:02:29;92588.13;;;10.35;69.26
65376;BME280;51976;47.332;9.404;2023-04-28T02:04:55;92553.25;;;10.20;69.61
65376;BME280;51976;47.332;9.404;2023-04-28T02:07:22;92592.13;;;10.37;69.17
65376;BME280;51976;47.332;9.404;2023-04-28T02:09:47;92542.13;;;10.02;69.48
65376;BME280;51976;47.332;9.404;2023-04-28T02:12:13;92595.13;;;10.36;69.70
65376;BME280;51976;47.332;9.404;2023-04-28T02:14:38;92598.66;;;10.31;69.16
65376;BME280;51976;47.332;9.404;2023-04-28T02:17:03;92592.75;;;10.29;69.40
65376;BME280;51976;47.332;9.404;2023-04-28T02:19:29;92594.38;;;10.30;69.58
65376;BME280;51976;47.332;9.404;2023-04-28T02:21:55;92598.63;;;10.36;69.46
65376;BME280;51976;47.332;9.404;2023-04-28T02:24:20;92589.63;;;10.41;70.00
65376;BME280;51976;47.332;9.404;2023-04-28T02:26:45;92581.22;;;10.24;70.35
65376;BME280;51976;47.332;9.404;2023-04-28T02:29:11;92606.56;;;10.23;70.90
65376;BME280;51976;47.332;9.404;2023-04-28T02:31:36;92582.34;;;10.17;70.78
65376;BME280;51976;47.332;9.404;2023-04-28T02:34:02;92574.28;;;9.89;71.19
65376;BME280;51976;47.332;9.404;2023-04-28T02:36:27;92590.63;;;9.97;71.49
65376;BME280;51976;47.332;9.404;2023-04-28T02:38:52;92607.78;;;10.06;70.79
65376;BME280;51976;47.332;9.404;2023-04-28T02:41:18;92632.88;;;10.31;69.33
65376;BME280;51976;47.332;9.404;2023-04-28T02:43:43;92619.41;;;10.55;68.85
65376;BME280;51976;47.332;9.404;2023-04-28T02:46:09;92601.72;;;10.67;68.37
65376;BME280;51976;47.332;9.404;2023-04-28T02:48:35;92559.59;;;10.52;68.46
65376;BME280;51976;47.332;9.404;2023-04-28T02:51:01;92618.91;;;10.95;69.20
65376;BME280;51976;47.332;9.404;2023-04-28T02:53:27;92581.41;;;10.75;69.12
65376;BME280;51976;47.332;9.404;2023-04-28T02:55:52;92596.91;;;10.88;69.20
65376;BME280;51976;47.332;9.404;2023-04-28T02:58:18;92604.75;;;10.66;71.22
65376;BME280;51976;47.332;9.404;2023-04-28T03:00:44;92606.69;;;10.60;70.63
65376;BME280;51976;47.332;9.404;2023-04-28T03:03:09;92544.72;;;10.36;70.54
65376;BME280;51976;47.332;9.404;2023-04-28T03:05:35;92603.44;;;10.82;71.52
65376;BME280;51976;47.332;9.404;2023-04-28T03:08:00;92546.47;;;10.46;72.78
65376;BME280;51976;47.332;9.404;2023-04-28T03:10:26;92595.25;;;10.68;73.18
65376;BME280;51976;47.332;9.404;2023-04-28T03:12:51;92594.31;;;10.35;75.69
65376;BME280;51976;47.332;9.404;2023-04-28T03:15:16;92574.00;;;10.19;76.14
65376;BME280;51976;47.332;9.404;2023-04-28T03:17:42;92594.53;;;10.39;75.25
65376;BME280;51976;47.332;9.404;2023-04-28T03:20:08;92591.72;;;10.49;75.21
65376;BME280;51976;47.332;9.404;2023-04-28T03:22:35;92600.03;;;10.29;75.70
65376;BME280;51976;47.332;9.404;2023-04-28T03:25:00;92592.06;;;10.13;75.94
65376;BME280;51976;47.332;9.404;2023-04-28T03:27:26;92538.75;;;9.87;75.45
65376;BME280;51976;47.332;9.404;2023-04-28T03:29:51;92546.75;;;9.97;74.93
65376;BME280;51976;47.332;9.404;2023-04-28T03:32:16;92601.41;;;10.26;74.96
65376;BME280;51976;47.332;9.404;2023-04-28T03:34:42;92583.31;;;10.03;75.67
65376;BME280;51976;47.332;9.404;2023-04-28T03:37:07;92597.97;;;10.21;75.97
65376;BME280;51976;47.332;9.404;2023-04-28T03:39:32;92588.13;;;10.06;76.59
65376;BME280;51976;47.332;9.404;2023-04-28T03:41:58;92572.59;;;9.98;76.53
65376;BME280;51976;47.332;9.404;2023-04-28T03:44:23;92595.78;;;10.23;76.59
65376;BME280;51976;47.332;9.404;2023-04-28T03:46:49;92593.09;;;10.17;76.55
65376;BME280;51976;47.332;9.404;2023-04-28T03:49:14;92597.63;;;10.27;76.46
65376;BME280;51976;47.332;9.404;2023-04-28T03:51:40;92602.72;;;10.29;76.57
65376;BME280;51976;47.332;9.404;2023-04-28T03:54:06;92587.97;;;9.92;77.21
65376;BME280;51976;47.332;9.404;2023-04-28T03:56:31;92609.16;;;10.04;77.68
65376;BME280;51976;47.332;9.404;2023-04-28T03:58:56;92602.00;;;10.18;77.00
65376;BME280;51976;47.332;9.404;2023-04-28T04:01:22;92616.25;;;10.24;77.03
65376;BME280;51976;47.332;9.404;2023-04-28T04:03:47;92609.03;;;10.14;76.95
65376;BME280;51976;47.332;9.404;2023-04-28T04:06:13;92613.31;;;10.20;77.13
65376;BME280;51976;47.332;9.404;2023-04-28T04:08:39;92627.25;;;10.27;77.63
65376;BME280;51976;47.332;9.404;2023-04-28T04:11:04;92634.97;;;10.10;79.03
65376;BME280;51976;47.332;9.404;2023-04-28T04:13:30;92638.91;;;9.89;80.29
65376;BME280;51976;47.332;9.404;2023-04-28T04:15:55;92631.75;;;10.08;79.94
65376;BME280;51976;47.332;9.404;2023-04-28T04:18:21;92640.06;;;10.11;79.35
65376;BME280;51976;47.332;9.404;2023-04-28T04:20:46;92637.22;;;10.27;79.20
65376;BME280;51976;47.332;9.404;2023-04-28T04:23:11;92580.22;;;9.85;79.15
65376;BME280;51976;47.332;9.404;2023-04-28T04:25:37;92616.91;;;9.81;80.41
65376;BME280;51976;47.332;9.404;2023-04-28T04:28:02;92616.75;;;9.97;80.27
65376;BME280;51976;47.332;9.404;2023-04-28T04:30:28;92611.28;;;10.07;80.18
65376;BME280;51976;47.332;9.404;2023-04-28T04:32:53;92583.41;;;9.93;79.80
65376;BME280;51976;47.332;9.404;2023-04-28T04:35:18;92622.50;;;10.14;79.64
65376;BME280;51976;47.332;9.404;2023-04-28T04:37:44;92639.06;;;10.02;80.70
65376;BME280;51976;47.332;9.404;2023-04-28T04:40:09;92615.34;;;9.75;81.27
65376;BME280;51976;47.332;9.404;2023-04-28T04:42:35;92644.25;;;9.94;81.52
65376;BME280;51976;47.332;9.404;2023-04-28T04:45:00;92636.16;;;9.94;81.48
65376;BME280;51976;47.332;9.404;2023-04-28T04:47:26;92566.13;;;9.36;82.29
65376;BME280;51976;47.332;9.404;2023-04-28T04:49:52;92613.72;;;9.74;82.25
65376;BME280;51976;47.332;9.404;2023-04-28T04:52:17;92636.41;;;9.97;81.93
65376;BME280;51976;47.332;9.404;2023-04-28T04:54:45;92598.63;;;9.78;81.91
65376;BME280;51976;47.332;9.404;2023-04-28T04:57:11;92625.31;;;10.04;81.69
65376;BME280;51976;47.332;9.404;2023-04-28T04:59:37;92635.28;;;9.69;82.16
65376;BME280;51976;47.332;9.404;2023-04-28T05:02:02;92632.88;;;9.68;82.20
65376;BME280;51976;47.332;9.404;2023-04-28T05:04:28;92646.69;;;9.90;81.80
65376;BME280;51976;47.332;9.404;2023-04-28T05:06:53;92619.63;;;9.76;81.25
65376;BME280;51976;47.332;9.404;2023-04-28T05:09:18;92638.84;;;9.94;80.46
65376;BME280;51976;47.332;9.404;2023-04-28T05:11:44;92604.97;;;9.59;80.84
65376;BME280;51976;47.332;9.404;2023-04-28T05:14:10;92612.19;;;9.63;81.60
65376;BME280;51976;47.332;9.404;2023-04-28T05:16:36;92596.66;;;9.55;81.27
65376;BME280;51976;47.332;9.404;2023-04-28T05:19:03;92636.06;;;9.75;80.77
65376;BME280;51976;47.332;9.404;2023-04-28T05:21:28;92632.75;;;9.54;80.71
65376;BME280;51976;47.332;9.404;2023-04-28T05:23:53;92654.25;;;9.54;81.55
65376;BME280;51976;47.332;9.404;2023-04-28T05:26:19;92649.69;;;9.55;82.26
65376;BME280;51976;47.332;9.404;2023-04-28T05:28:44;92637.56;;;9.57;82.06
65376;BME280;51976;47.332;9.404;2023-04-28T05:31:11;92649.00;;;9.73;81.66
65376;BME280;51976;47.332;9.404;2023-04-28T05:33:37;92655.72;;;9.75;81.26
65376;BME280;51976;47.332;9.404;2023-04-28T05:36:02;92656.41;;;9.86;80.97
65376;BME280;51976;47.332;9.404;2023-04-28T05:38:28;92659.59;;;9.93;80.48
65376;BME280;51976;47.332;9.404;2023-04-28T05:40:54;92665.75;;;9.65;81.03
65376;BME280;51976;47.332;9.404;2023-04-28T05:43:19;92660.09;;;9.61;81.53
65376;BME280;51976;47.332;9.404;2023-04-28T05:45:45;92637.69;;;9.37;81.22
65376;BME280;51976;47.332;9.404;2023-04-28T05:48:11;92584.59;;;9.13;81.27
65376;BME280;51976;47.332;9.404;2023-04-28T05:50:36;92663.81;;;9.70;80.69
65376;BME280;51976;47.332;9.404;2023-04-28T05:53:02;92690.91;;;9.84;80.43
65376;BME280;51976;47.332;9.404;2023-04-28T05:55:28;92700.91;;;9.78;80.07
65376;BME280;51976;47.332;9.404;2023-04-28T05:57:56;92613.91;;;9.15;80.42
65376;BME280;51976;47.332;9.404;2023-04-28T06:00:21;92702.03;;;9.72;80.59
65376;BME280;51976;47.332;9.404;2023-04-28T06:02:47;92697.06;;;9.50;80.74
65376;BME280;51976;47.332;9.404;2023-04-28T06:05:12;92710.34;;;9.76;80.35
65376;BME280;51976;47.332;9.404;2023-04-28T06:07:38;92717.03;;;9.83;79.84
65376;BME280;51976;47.332;9.404;2023-04-28T06:10:03;92717.19;;;9.58;80.53
65376;BME280;51976;47.332;9.404;2023-04-28T06:12:29;92715.69;;;9.42;80.68
65376;BME280;51976;47.332;9.404;2023-04-28T06:14:55;92663.25;;;8.85;82.06
65376;BME280;51976;47.332;9.404;2023-04-28T06:17:20;92663.19;;;9.00;81.87
65376;BME280;51976;47.332;9.404;2023-04-28T06:19:46;92671.97;;;9.21;81.45
65376;BME280;51976;47.332;9.404;2023-04-28T06:22:12;92658.63;;;9.01;81.61
65376;BME280;51976;47.332;9.404;2023-04-28T06:24:37;92698.56;;;9.28;81.88
65376;BME280;51976;47.332;9.404;2023-04-28T06:27:03;92723.34;;;9.20;82.41
65376;BME280;51976;47.332;9.404;2023-04-28T06:29:28;92720.47;;;9.01;83.51
65376;BME280;51976;47.332;9.404;2023-04-28T06:31:54;92659.06;;;8.54;83.49
65376;BME280;51976;47.332;9.404;2023-04-28T06:34:24;92703.56;;;8.90;83.46
65376;BME280;51976;47.332;9.404;2023-04-28T06:36:53;92707.59;;;8.93;83.69
65376;BME280;51976;47.332;9.404;2023-04-28T06:39:20;92706.78;;;8.97;83.84
65376;BME280;51976;47.332;9.404;2023-04-28T06:41:46;92585.81;;;8.33;83.41
65376;BME280;51976;47.332;9.404;2023-04-28T06:44:11;92700.78;;;9.10;83.04
65376;BME280;51976;47.332;9.404;2023-04-28T06:46:37;92703.44;;;9.21;83.20
65376;BME280;51976;47.332;9.404;2023-04-28T06:49:03;92709.25;;;9.38;83.15
65376;BME280;51976;47.332;9.404;2023-04-28T06:51:30;92701.09;;;9.53;82.65
65376;BME280;51976;47.332;9.404;2023-04-28T06:53:57;92704.69;;;9.33;83.34
65376;BME280;51976;47.332;9.404;2023-04-28T06:56:23;92714.06;;;9.41;83.21
65376;BME280;51976;47.332;9.404;2023-04-28T06:58:49;92710.63;;;9.30;83.65
65376;BME280;51976;47.332;9.404;2023-04-28T07:01:15;92648.16;;;8.99;83.39
65376;BME280;51976;47.332;9.404;2023-04-28T07:03:41;92702.59;;;9.25;83.62
65376;BME280;51976;47.332;9.404;2023-04-28T07:06:07;92655.34;;;9.04;82.83
65376;BME280;51976;47.332;9.404;2023-04-28T07:08:33;92713.25;;;9.45;82.78
65376;BME280;51976;47.332;9.404;2023-04-28T07:10:58;92649.09;;;9.19;82.64
65376;BME280;51976;47.332;9.404;2023-04-28T07:13:24;92695.38;;;9.60;82.52
65376;BME280;51976;47.332;9.404;2023-04-28T07:15:50;92703.84;;;9.38;83.01
65376;BME280;51976;47.332;9.404;2023-04-28T07:18:15;92703.34;;;9.31;83.78
65376;BME280;51976;47.332;9.404;2023-04-28T07:20:41;92688.22;;;9.45;83.27
65376;BME280;51976;47.332;9.404;2023-04-28T07:23:06;92681.09;;;9.20;83.74
65376;BME280;51976;47.332;9.404;2023-04-28T07:25:32;92674.50;;;9.02;85.03
65376;BME280;51976;47.332;9.404;2023-04-28T07:27:58;92694.78;;;9.29;85.02
65376;BME280;51976;47.332;9.404;2023-04-28T07:30:24;92683.41;;;9.42;84.76
65376;BME280;51976;47.332;9.404;2023-04-28T07:32:50;92662.63;;;9.53;84.53
65376;BME280;51976;47.332;9.404;2023-04-28T07:35:15;92604.41;;;9.28;84.00
65376;BME280;51976;47.332;9.404;2023-04-28T07:37:41;92672.41;;;9.72;83.94
65376;BME280;51976;47.332;9.404;2023-04-28T07:40:07;92662.47;;;9.73;83.89
65376;BME280;51976;47.332;9.404;2023-04-28T07:42:32;92654.88;;;9.80;83.45
65376;BME280;51976;47.332;9.404;2023-04-28T07:44:58;92647.34;;;9.77;83.72
65376;BME280;51976;47.332;9.404;2023-04-28T07:47:24;92634.81;;;9.62;83.92
65376;BME280;51976;47.332;9.404;2023-04-28T07:49:49;92649.66;;;9.89;83.83
65376;BME280;51976;47.332;9.404;2023-04-28T07:52:15;92628.03;;;9.70;83.62
65376;BME280;51976;47.332;9.404;2023-04-28T07:54:40;92642.38;;;9.89;83.22
65376;BME280;51976;47.332;9.404;2023-04-28T07:57:06;92587.97;;;9.63;82.87
65376;BME280;51976;47.332;9.404;2023-04-28T07:59:34;92644.38;;;9.78;82.45
65376;BME280;51976;47.332;9.404;2023-04-28T08:01:59;92644.38;;;9.78;82.27
65376;BME280;51976;47.332;9.404;2023-04-28T08:04:24;92643.88;;;9.76;82.31
65376;BME280;51976;47.332;9.404;2023-04-28T08:06:50;92639.47;;;9.85;82.14
65376;BME280;51976;47.332;9.404;2023-04-28T08:09:15;92568.75;;;9.46;82.36
65376;BME280;51976;47.332;9.404;2023-04-28T08:11:41;92614.13;;;9.87;81.63
65376;BME280;51976;47.332;9.404;2023-04-28T08:14:06;92603.00;;;9.69;81.58
65376;BME280;51976;47.332;9.404;2023-04-28T08:16:32;92568.75;;;9.46;82.03
65376;BME280;51976;47.332;9.404;2023-04-28T08:19:01;92591.00;;;9.23;83.36
65376;BME280;51976;47.332;9.404;2023-04-28T08:21:26;92650.91;;;9.67;83.03
65376;BME280;51976;47.332;9.404;2023-04-28T08:23:52;92570.25;;;9.28;82.76
65376;BME280;51976;47.332;9.404;2023-04-28T08:26:17;92607.50;;;9.45;83.09
65376;BME280;51976;47.332;9.404;2023-04-28T08:28:43;92664.91;;;9.69;82.78
65376;BME280;51976;47.332;9.404;2023-04-28T08:31:09;92664.59;;;9.76;82.65
65376;BME280;51976;47.332;9.404;2023-04-28T08:33:36;92624.09;;;9.57;82.52
65376;BME280;51976;47.332;9.404;2023-04-28T08:36:03;92660.53;;;9.78;82.93
65376;BME280;51976;47.332;9.404;2023-04-28T08:38:29;92686.72;;;10.02;82.60
65376;BME280;51976;47.332;9.404;2023-04-28T08:40:54;92643.97;;;9.61;82.75
65376;BME280;51976;47.332;9.404;2023-04-28T08:43:20;92683.13;;;9.82;82.69
65376;BME280;51976;47.332;9.404;2023-04-28T08:45:45;92640.59;;;9.45;83.60
65376;BME280;51976;47.332;9.404;2023-04-28T08:48:17;92614.91;;;9.29;84.49
65376;BME280;51976;47.332;9.404;2023-04-28T08:50:49;92648.34;;;9.52;84.63
65376;BME280;51976;47.332;9.404;2023-04-28T08:53:21;92646.72;;;9.56;83.57
65376;BME280;51976;47.332;9.404;2023-04-28T08:55:53;92676.16;;;9.76;82.95
65376;BME280;51976;47.332;9.404;2023-04-28T08:58:21;92699.81;;;9.84;82.75
65376;BME280;51976;47.332;9.404;2023-04-28T09:00:48;92627.03;;;9.22;83.14
65376;BME280;51976;47.332;9.404;2023-04-28T09:03:14;92703.72;;;9.58;82.71
65376;BME280;51976;47.332;9.404;2023-04-28T09:05:39;92702.69;;;9.54;82.96
65376;BME280;51976;47.332;9.404;2023-04-28T09:08:05;92703.72;;;9.58;82.48
65376;BME280;51976;47.332;9.404;2023-04-28T09:10:30;92625.19;;;9.17;82.55
65376;BME280;51976;47.332;9.404;2023-04-28T09:12:55;92663.31;;;9.63;82.72
65376;BME280;51976;47.332;9.404;2023-04-28T09:15:25;92698.22;;;9.78;82.32
65376;BME280;51976;47.332;9.404;2023-04-28T09:17:51;92674.44;;;9.57;82.84
65376;BME280;51976;47.332;9.404;2023-04-28T09:20:22;92692.84;;;9.78;82.58
65376;BME280;51976;47.332;9.404;2023-04-28T09:22:49;92695.50;;;9.83;83.10
65376;BME280;51976;47.332;9.404;2023-04-28T09:25:16;92666.75;;;9.35;83.52
65376;BME280;51976;47.332;9.404;2023-04-28T09:27:41;92614.03;;;9.34;83.60
65376;BME280;51976;47.332;9.404;2023-04-28T09:30:07;92675.34;;;9.76;84.34
65376;BME280;51976;47.332;9.404;2023-04-28T09:32:34;92665.72;;;9.70;84.16
65376;BME280;51976;47.332;9.404;2023-04-28T09:35:01;92656.19;;;9.82;84.27
65376;BME280;51976;47.332;9.404;2023-04-28T09:37:30;92618.75;;;9.52;84.00
65376;BME280;51976;47.332;9.404;2023-04-28T09:40:01;92676.69;;;9.78;84.76
65376;BME280;51976;47.332;9.404;2023-04-28T09:42:40;92681.09;;;9.98;84.22
65376;BME280;51976;47.332;9.404;2023-04-28T09:45:07;92624.84;;;9.63;83.68
65376;BME280;51976;47.332;9.404;2023-04-28T09:47:40;92682.72;;;9.99;83.97
65376;BME280;51976;47.332;9.404;2023-04-28T09:50:07;92678.59;;;10.07;83.11
65376;BME280;51976;47.332;9.404;2023-04-28T09:52:34;92530.19;;;9.27;82.26
65376;BME280;51976;47.332;9.404;2023-04-28T09:55:02;92664.88;;;10.08;82.45
65376;BME280;51976;47.332;9.404;2023-04-28T09:57:32;92666.75;;;10.08;83.61
65376;BME280;51976;47.332;9.404;2023-04-28T09:59:59;92600.34;;;9.64;84.79
65376;BME280;51976;47.332;9.404;2023-04-28T10:02:25;92639.28;;;10.06;84.26
65376;BME280;51976;47.332;9.404;2023-04-28T10:04:51;92659.41;;;10.13;84.09
65376;BME280;51976;47.332;9.404;2023-04-28T10:07:18;92645.94;;;10.13;84.32
65376;BME280;51976;47.332;9.404;2023-04-28T10:09:50;92569.38;;;9.67;84.40
65376;BME280;51976;47.332;9.404;2023-04-28T10:12:16;92657.41;;;10.29;84.50
65376;BME280;51976;47.332;9.404;2023-04-28T10:14:43;92641.50;;;10.33;85.15
65376;BME280;51976;47.332;9.404;2023-04-28T10:17:09;92640.75;;;10.51;84.59
65376;BME280;51976;47.332;9.404;2023-04-28T10:19:35;92629.69;;;10.52;85.84
65376;BME280;51976;47.332;9.404;2023-04-28T10:22:37;92643.72;;;10.73;85.29
65376;BME280;51976;47.332;9.404;2023-04-28T10:25:26;92632.66;;;10.75;85.35
65376;BME280;51976;47.332;9.404;2023-04-28T10:27:52;92631.78;;;10.79;85.53
65376;BME280;51976;47.332;9.404;2023-04-28T10:30:20;92567.75;;;10.47;85.79
65376;BME280;51976;47.332;9.404;2023-04-28T10:32:46;92641.66;;;10.89;85.19
65376;BME280;51976;47.332;9.404;2023-04-28T10:35:42;92638.75;;;11.04;84.87
65376;BME280;51976;47.332;9.404;2023-04-28T10:38:16;92650.44;;;11.18;84.20
65376;BME280;51976;47.332;9.404;2023-04-28T10:40:44;92636.22;;;11.13;83.44
65376;BME280;51976;47.332;9.404;2023-04-28T10:43:11;92663.94;;;11.18;84.33
65376;BME280;51976;47.332;9.404;2023-04-28T10:45:58;92654.34;;;11.07;84.51
65376;BME280;51976;47.332;9.404;2023-04-28T10:48:54;92651.44;;;11.23;84.53
65376;BME280;51976;47.332;9.404;2023-04-28T10:51:20;92649.66;;;11.18;85.25
65376;BME280;51976;47.332;9.404;2023-04-28T10:54:06;92648.97;;;11.26;84.96
65376;BME280;51976;47.332;9.404;2023-04-28T10:56:32;92646.00;;;11.28;84.67
65376;BME280;51976;47.332;9.404;2023-04-28T10:58:59;92655.56;;;11.39;84.45
65376;BME280;51976;47.332;9.404;2023-04-28T11:01:26;92667.00;;;11.49;83.96
65376;BME280;51976;47.332;9.404;2023-04-28T11:03:54;92664.22;;;11.54;84.45
65376;BME280;51976;47.332;9.404;2023-04-28T11:06:31;92669.28;;;11.61;84.46
65376;BME280;51976;47.332;9.404;2023-04-28T11:09:00;92647.00;;;11.50;83.67
65376;BME280;51976;47.332;9.404;2023-04-28T11:11:30;92633.81;;;11.49;83.89
65376;BME280;51976;47.332;9.404;2023-04-28T11:14:35;92662.25;;;11.60;84.14
65376;BME280;51976;47.332;9.404;2023-04-28T11:17:05;92628.28;;;11.40;84.18
65376;BME280;51976;47.332;9.404;2023-04-28T11:19:33;92607.34;;;11.32;84.09
65376;BME280;51976;47.332;9.404;2023-04-28T11:22:01;92661.47;;;11.60;84.56
65376;BME280;51976;47.332;9.404;2023-04-28T11:24:27;92667.16;;;11.58;84.60
65376;BME280;51976;47.332;9.404;2023-04-28T11:26:54;92667.09;;;11.63;84.01
65376;BME280;51976;47.332;9.404;2023-04-28T11:29:36;92632.41;;;11.51;84.26
65376;BME280;51976;47.332;9.404;2023-04-28T11:32:06;92655.13;;;11.69;84.20
65376;BME280;51976;47.332;9.404;2023-04-28T11:34:32;92630.88;;;11.64;84.18
65376;BME280;51976;47.332;9.404;2023-04-28T11:36:58;92663.72;;;11.90;84.09
65376;BME280;51976;47.332;9.404;2023-04-28T11:39:31;92671.47;;;11.97;83.98
65376;BME280;51976;47.332;9.404;2023-04-28T11:42:15;92672.28;;;11.97;84.02
65376;BME280;51976;47.332;9.404;2023-04-28T11:44:48;92658.03;;;11.92;83.59
65376;BME280;51976;47.332;9.404;2023-04-28T11:47:27;92662.25;;;11.98;83.68
65376;BME280;51976;47.332;9.404;2023-04-28T11:49:53;92662.88;;;12.08;83.43
65376;BME280;51976;47.332;9.404;2023-04-28T11:52:18;92666.16;;;12.05;83.39
65376;BME280;51976;47.332;9.404;2023-04-28T11:54:55;92651.28;;;12.08;83.17
65376;BME280;51976;47.332;9.404;2023-04-28T11:57:23;92659.44;;;12.35;82.42
65376;BME280;51976;47.332;9.404;2023-04-28T11:59:49;92666.66;;;12.40;82.21
65376;BME280;51976;47.332;9.404;2023-04-28T12:02:22;92660.97;;;12.41;82.10
65376;BME280;51976;47.332;9.404;2023-04-28T12:04:48;92658.41;;;12.50;82.65
65376;BME280;51976;47.332;9.404;2023-04-28T12:07:17;92659.41;;;12.54;82.52
65376;BME280;51976;47.332;9.404;2023-04-28T12:09:46;92646.78;;;12.49;82.36
65376;BME280;51976;47.332;9.404;2023-04-28T12:12:14;92662.41;;;12.52;81.88
65376;BME280;51976;47.332;9.404;2023-04-28T12:14:55;92656.19;;;12.52;81.87
65376;BME280;51976;47.332;9.404;2023-04-28T12:17:28;92662.69;;;12.51;81.89
65376;BME280;51976;47.332;9.404;2023-04-28T12:19:57;92667.00;;;12.52;81.97
65376;BME280;51976;47.332;9.404;2023-04-28T12:22:24;92660.16;;;12.41;82.33
65376;BME280;51976;47.332;9.404;2023-04-28T12:25:07;92672.81;;;12.45;82.05
65376;BME280;51976;47.332;9.404;2023-04-28T12:27:33;92682.00;;;12.44;82.92
65376;BME280;51976;47.332;9.404;2023-04-28T12:30:01;92681.06;;;12.35;83.10
65376;BME280;51976;47.332;9.404;2023-04-28T12:32:41;92672.66;;;12.37;83.74
65376;BME280;51976;47.332;9.404;2023-04-28T12:35:09;92666.97;;;12.38;83.34
65376;BME280;51976;47.332;9.404;2023-04-28T12:37:36;92643.72;;;12.24;83.52
65376;BME280;51976;47.332;9.404;2023-04-28T12:40:04;92672.88;;;12.40;83.08
65376;BME280;51976;47.332;9.404;2023-04-28T12:42:31;92676.09;;;12.42;83.41
65376;BME280;51976;47.332;9.404;2023-04-28T12:44:57;92661.66;;;12.33;83.63
65376;BME280;51976;47.332;9.404;2023-04-28T12:47:22;92670.38;;;12.44;83.46
65376;BME280;51976;47.332;9.404;2023-04-28T12:49:48;92678.72;;;12.47;83.14
65376;BME280;51976;47.332;9.404;2023-04-28T12:52:17;92662.31;;;12.58;83.14
65376;BME280;51976;47.332;9.404;2023-04-28T12:54:43;92665.41;;;12.65;82.48
65376;BME280;51976;47.332;9.404;2023-04-28T12:57:11;92659.94;;;12.83;82.56
65376;BME280;51976;47.332;9.404;2023-04-28T12:59:38;92653.72;;;12.83;81.95
65376;BME280;51976;47.332;9.404;2023-04-28T13:02:03;92648.47;;;12.86;81.50
65376;BME280;51976;47.332;9.404;2023-04-28T13:04:29;92654.59;;;12.92;81.15